Time;durP1;ratioP1;P1;durP2;ratioP2;P2;SDS_P1;SDS_P2;PMS_P1;PMS_P2;Temp;Humidity;BMP_temperature;BMP_pressure;BME280_temperature;BME280_humidity;BME280_pressure;Samples;Min_cycle;Max_cycle;Signal;HPM_P1;HPM_P2
2022/10/06 00:00:07;;;;;;;7.10;4.50;;;;;;;13.74;82.90;98862.22;5043470;28;20140;-93
2022/10/06 00:02:42;;;;;;;6.18;4.80;;;;;;;13.79;82.44;98870.31;5047620;28;20091;-95
2022/10/06 00:05:13;;;;;;;6.10;4.45;;;;;;;13.72;82.26;98853.69;5080461;28;20041;-91
2022/10/06 00:07:40;;;;;;;6.00;5.18;;;;;;;13.70;82.36;98856.53;5067567;28;20039;-92
2022/10/06 00:10:22;;;;;;;4.80;4.15;;;;;;;13.88;81.51;98874.38;5081775;28;20037;-95
2022/10/06 00:12:51;;;;;;;6.22;4.45;;;;;;;13.71;81.68;98866.03;5051162;28;20036;-93
2022/10/06 00:15:30;;;;;;;5.25;4.75;;;;;;;13.76;81.17;98861.00;5050231;28;20060;-93
2022/10/06 00:18:08;;;;;;;4.85;4.32;;;;;;;13.65;81.33;98849.22;5084043;28;20033;-95
2022/10/06 00:20:35;;;;;;;4.75;4.25;;;;;;;13.78;80.83;98885.31;5047542;28;20056;-95
2022/10/06 00:23:05;;;;;;;6.35;4.22;;;;;;;13.75;81.17;98862.00;5066560;28;20143;-94
2022/10/06 00:25:59;;;;;;;5.07;4.20;;;;;;;13.66;80.59;98856.09;5082539;28;20051;-94
2022/10/06 00:28:32;;;;;;;4.78;3.97;;;;;;;13.80;80.28;98864.03;5056521;28;20049;-94
2022/10/06 00:31:01;;;;;;;7.45;4.90;;;;;;;13.73;80.72;98864.00;5058159;28;20077;-95
2022/10/06 00:33:33;;;;;;;4.53;3.55;;;;;;;13.68;79.62;98863.81;5045114;28;20455;-95
2022/10/06 00:36:06;;;;;;;5.53;4.22;;;;;;;13.66;79.91;98861.38;5045461;28;20044;-95
2022/10/06 00:38:41;;;;;;;3.90;3.50;;;;;;;13.84;80.22;98888.97;5043970;28;20052;-94
2022/10/06 00:41:17;;;;;;;4.53;4.07;;;;;;;13.73;79.88;98882.47;5046315;28;20492;-95
2022/10/06 00:44:03;;;;;;;4.78;3.90;;;;;;;13.60;80.14;98877.97;5063649;28;20481;-95
2022/10/06 00:46:53;;;;;;;5.57;4.10;;;;;;;13.80;79.50;98895.69;5080559;28;20040;-95
2022/10/06 00:49:42;;;;;;;4.95;4.13;;;;;;;13.75;79.40;98879.66;5065195;28;20056;-94
2022/10/06 00:52:29;;;;;;;5.18;3.80;;;;;;;13.63;79.20;98871.53;5083869;28;20112;-90
2022/10/06 00:55:21;;;;;;;4.63;4.03;;;;;;;13.75;79.50;98898.91;5084231;28;20056;-92
2022/10/06 00:57:54;;;;;;;4.27;3.33;;;;;;;13.75;79.10;98891.00;5065546;28;20123;-95
2022/10/06 01:00:28;;;;;;;4.78;3.75;;;;;;;13.78;79.10;98902.97;5075348;28;20788;-94
2022/10/06 01:03:37;;;;;;;5.10;3.50;;;;;;;13.73;79.18;98897.47;5063909;28;20053;-94
2022/10/06 01:06:27;;;;;;;4.60;3.70;;;;;;;13.62;78.88;98880.44;5063661;28;20148;-95
2022/10/06 01:09:00;;;;;;;5.97;3.35;;;;;;;13.60;79.35;98879.81;5089089;28;20401;-94
2022/10/06 01:11:48;;;;;;;7.32;3.80;;;;;;;13.63;78.65;98887.34;5027773;28;20635;-95
2022/10/06 01:14:23;;;;;;;4.70;3.88;;;;;;;13.63;78.77;98885.50;5059367;28;20041;-96
2022/10/06 01:17:24;;;;;;;5.47;3.20;;;;;;;13.87;78.45;98914.97;5045730;28;20045;-95
2022/10/06 01:20:06;;;;;;;4.40;3.58;;;;;;;13.70;78.26;98885.50;5045743;28;20041;-95
2022/10/06 01:23:13;;;;;;;4.18;3.50;;;;;;;13.71;78.37;98888.97;5070170;28;20050;-95
2022/10/06 01:26:09;;;;;;;5.93;3.95;;;;;;;13.70;78.24;98895.25;5076729;28;20094;-95
2022/10/06 01:28:46;;;;;;;4.50;3.67;;;;;;;13.63;78.06;98898.69;5093501;28;20507;-95
2022/10/06 01:31:32;;;;;;;7.18;3.50;;;;;;;13.64;78.75;98892.41;5073383;28;20522;-96
2022/10/06 01:34:12;;;;;;;3.72;3.33;;;;;;;13.80;78.41;98927.31;5084784;28;20048;-95
2022/10/06 01:36:53;;;;;;;;;;;;;;;;;;;;;
2022/10/06 01:39:45;;;;;;;3.90;3.50;;;;;;;13.62;78.87;98907.59;5065430;28;20398;-93
2022/10/06 01:42:12;;;;;;;4.70;3.33;;;;;;;13.66;78.71;98919.34;5067510;28;20044;-94
2022/10/06 01:45:00;;;;;;;5.70;3.55;;;;;;;13.60;79.13;98914.88;5105626;28;20098;-96
2022/10/06 01:47:52;;;;;;;4.85;3.25;;;;;;;13.60;79.13;98914.88;5103439;28;20035;-95
2022/10/06 01:50:42;;;;;;;5.93;3.80;;;;;;;13.55;79.23;98911.22;5078730;28;20043;-94
2022/10/06 01:53:28;;;;;;;6.60;3.78;;;;;;;13.62;79.16;98923.44;5106222;28;20047;-96
2022/10/06 01:56:16;;;;;;;6.22;3.72;;;;;;;13.47;79.28;98914.03;5091053;28;20051;-95
2022/10/06 01:58:43;;;;;;;4.65;3.40;;;;;;;13.53;79.35;98926.44;5059160;28;20068;-93
2022/10/06 02:01:13;;;;;;;5.25;3.90;;;;;;;13.50;79.38;98919.75;5047248;28;20099;-93
2022/10/06 02:03:43;;;;;;;6.00;3.60;;;;;;;13.60;79.52;98943.06;5069544;28;20072;-94
2022/10/06 02:06:15;;;;;;;;;;;;;;;13.58;79.54;98935.38;5066821;28;20036;-95
2022/10/06 02:08:43;;;;;;;5.53;3.70;;;;;;;13.39;79.73;98915.84;5066238;28;19927;-95
2022/10/06 02:11:12;;;;;;;5.32;3.85;;;;;;;13.45;79.91;98935.34;5099664;28;20040;-96
2022/10/06 02:13:54;;;;;;;4.22;3.60;;;;;;;13.29;80.03;98911.94;5095193;28;20044;-95
2022/10/06 02:16:28;;;;;;;4.00;3.58;;;;;;;13.41;79.94;98930.63;5083393;28;20075;-95
2022/10/06 02:19:05;;;;;;;8.38;3.50;;;;;;;13.51;79.50;98952.19;5085350;28;20024;-95
2022/10/06 02:21:35;;;;;;;5.82;3.53;;;;;;;13.35;79.79;98914.59;5084984;28;20045;-94
2022/10/06 02:24:15;;;;;;;5.45;3.50;;;;;;;13.35;78.91;98905.91;5097800;28;20111;-94
2022/10/06 02:26:42;;;;;;;5.07;3.42;;;;;;;13.40;79.42;98921.94;5086775;28;20049;-95
2022/10/06 02:29:13;;;;;;;5.72;4.25;;;;;;;13.34;79.33;98906.91;5081994;28;20068;-95
2022/10/06 02:31:44;;;;;;;7.70;4.35;;;;;;;13.29;79.26;98925.13;5079493;28;20048;-93
2022/10/06 02:34:22;;;;;;;3.78;3.45;;;;;;;13.35;79.39;98924.34;5079776;28;20450;-93
2022/10/06 02:36:51;;;;;;;4.18;3.13;;;;;;;13.31;79.12;98929.22;5081354;28;20048;-94
2022/10/06 02:39:18;;;;;;;6.18;3.80;;;;;;;13.46;78.98;98939.59;5060057;28;20484;-92
2022/10/06 02:41:51;;;;;;;7.30;3.53;;;;;;;13.36;79.31;98936.50;5077582;28;20036;-95
2022/10/06 02:44:20;;;;;;;5.25;3.38;;;;;;;13.38;79.30;98931.88;5078407;28;20431;-94
2022/10/06 02:46:47;;;;;;;5.18;3.30;;;;;;;13.45;79.36;98935.34;5066530;28;20048;-96
2022/10/06 02:49:19;;;;;;;4.00;3.30;;;;;;;13.34;78.94;98941.16;5080793;28;20032;-96
2022/10/06 02:51:54;;;;;;;5.00;3.47;;;;;;;13.31;79.03;98923.09;5057967;28;20052;-95
2022/10/06 02:54:41;;;;;;;5.28;3.30;;;;;;;13.37;78.53;98940.75;5065649;28;20050;-95
2022/10/06 02:57:30;;;;;;;6.78;3.88;;;;;;;13.36;78.76;98939.13;5083989;28;20048;-95
2022/10/06 03:00:16;;;;;;;6.07;3.40;;;;;;;13.29;78.63;98939.09;5082531;28;20122;-95
2022/10/06 03:02:53;;;;;;;5.95;3.22;;;;;;;13.43;79.00;98976.84;5078793;28;20058;-94
2022/10/06 03:05:21;;;;;;;5.85;3.45;;;;;;;13.35;79.46;98963.84;5076985;28;20783;-94
2022/10/06 03:07:48;;;;;;;3.97;3.10;;;;;;;13.27;79.23;98941.13;5042136;28;20036;-95
2022/10/06 03:10:18;;;;;;;4.85;3.70;;;;;;;13.35;78.86;98954.13;5043223;28;20045;-95
2022/10/06 03:12:45;;;;;;;6.22;3.33;;;;;;;13.35;79.41;98969.94;5022686;28;20057;-94
2022/10/06 03:15:29;;;;;;;3.67;3.20;;;;;;;13.34;79.33;98967.50;5041153;28;20079;-94
2022/10/06 03:18:00;;;;;;;4.85;3.58;;;;;;;13.34;78.61;98970.13;5062297;28;20073;-95
2022/10/06 03:20:27;;;;;;;4.13;3.13;;;;;;;13.45;78.71;98995.94;5023256;28;20056;-93
2022/10/06 03:22:56;;;;;;;6.45;3.40;;;;;;;13.37;78.69;98978.47;5060803;28;20068;-96
2022/10/06 03:25:32;;;;;;;4.38;3.30;;;;;;;13.40;78.81;98982.53;5040955;28;20053;-95
2022/10/06 03:28:01;;;;;;;5.45;3.20;;;;;;;13.55;78.23;99008.72;5055095;28;20488;-94
2022/10/06 03:30:30;;;;;;;4.75;3.45;;;;;;;13.44;78.68;98994.31;5055354;28;20045;-94
2022/10/06 03:33:00;;;;;;;4.90;3.40;;;;;;;13.46;78.76;99002.81;5038190;28;20102;-95
2022/10/06 03:35:30;;;;;;;4.43;3.35;;;;;;;13.51;79.37;99016.22;5043939;28;20055;-93
2022/10/06 03:38:08;;;;;;;5.05;3.50;;;;;;;13.41;78.99;99015.78;5042575;28;20048;-95
2022/10/06 03:40:37;;;;;;;5.18;3.17;;;;;;;13.43;79.41;99023.47;5080610;28;20044;-96
2022/10/06 03:43:11;;;;;;;6.55;3.42;;;;;;;13.43;79.12;99026.91;5059925;28;20559;-94
2022/10/06 03:45:39;;;;;;;4.47;3.50;;;;;;;13.26;78.95;99015.09;5077641;28;20040;-95
2022/10/06 03:48:11;;;;;;;5.50;3.80;;;;;;;13.30;79.14;99016.31;5046350;28;20068;-96
2022/10/06 03:50:38;;;;;;;6.70;3.60;;;;;;;13.46;79.32;99039.72;5039955;28;20443;-94
2022/10/06 03:53:05;;;;;;;4.38;3.35;;;;;;;13.45;79.54;99032.84;5066618;28;20106;-94
2022/10/06 03:55:32;;;;;;;3.78;3.40;;;;;;;13.52;78.77;99033.66;5076129;28;20536;-94
2022/10/06 03:58:01;;;;;;;6.20;4.07;;;;;;;13.62;79.03;99036.78;5074308;28;20051;-92
2022/10/06 04:00:27;;;;;;;6.05;3.45;;;;;;;13.51;79.01;99037.31;5074563;28;20045;-93
2022/10/06 04:02:54;;;;;;;4.70;3.28;;;;;;;13.64;78.83;99047.91;5089707;28;20049;-91
2022/10/06 04:05:23;;;;;;;4.72;3.85;;;;;;;13.73;78.43;99056.47;5076382;28;20040;-94
2022/10/06 04:07:51;;;;;;;5.10;3.55;;;;;;;13.68;78.68;99053.63;5092979;28;20476;-92
2022/10/06 04:10:21;;;;;;;3.92;3.53;;;;;;;13.60;79.37;99044.03;5095328;28;20498;-94
2022/10/06 04:12:48;;;;;;;4.85;4.10;;;;;;;13.62;78.44;99049.94;5077212;28;20490;-96
2022/10/06 04:15:14;;;;;;;5.60;3.63;;;;;;;13.58;78.39;99059.25;5081497;28;20442;-94
2022/10/06 04:17:41;;;;;;;4.45;3.50;;;;;;;13.51;78.86;99053.13;5079724;28;20044;-93
2022/10/06 04:20:08;;;;;;;4.80;3.90;;;;;;;13.31;79.00;99041.66;5097501;28;20518;-95
2022/10/06 04:22:35;;;;;;;6.43;3.95;;;;;;;13.47;79.06;99072.97;5065983;28;20055;-96
2022/10/06 04:25:02;;;;;;;5.75;3.70;;;;;;;13.41;79.33;99072.94;5097034;28;20054;-94
2022/10/06 04:27:31;;;;;;;7.47;3.97;;;;;;;13.34;79.51;99070.25;5079628;28;20055;-94
2022/10/06 04:29:59;;;;;;;7.20;4.00;;;;;;;13.31;80.08;99073.25;5079774;28;20047;-93
2022/10/06 04:32:28;;;;;;;4.68;3.47;;;;;;;13.34;79.50;99083.44;5099924;28;20503;-93
2022/10/06 04:34:55;;;;;;;5.20;3.90;;;;;;;13.24;80.19;99070.59;5101045;28;20380;-94
2022/10/06 04:37:42;;;;;;;4.22;3.58;;;;;;;13.35;79.72;99077.16;5103279;28;20067;-95
2022/10/06 04:40:12;;;;;;;5.20;3.63;;;;;;;13.45;79.63;99101.34;5103342;28;20411;-94
2022/10/06 04:42:44;;;;;;;11.00;4.30;;;;;;;13.33;79.44;99084.44;5082271;28;20135;-94
2022/10/06 04:45:15;;;;;;;6.13;3.80;;;;;;;13.38;79.50;99084.69;5101591;28;20072;-96
2022/10/06 04:47:44;;;;;;;7.32;3.97;;;;;;;13.43;79.85;99086.72;5081069;28;20115;-92
2022/10/06 04:50:13;;;;;;;8.75;3.80;;;;;;;13.46;79.69;99094.25;5080690;28;20070;-94
2022/10/06 04:52:40;;;;;;;5.13;3.60;;;;;;;13.47;79.47;99093.25;5064323;28;20070;-92
2022/10/06 04:55:33;;;;;;;4.18;3.70;;;;;;;13.35;79.53;99098.22;5083395;28;20059;-93
2022/10/06 04:58:18;;;;;;;3.80;3.45;;;;;;;13.35;79.51;99116.69;5083238;28;20560;-93
2022/10/06 05:01:14;;;;;;;5.03;4.05;;;;;;;13.38;79.86;99126.84;5099903;28;20097;-91
2022/10/06 05:04:05;;;;;;;3.72;3.10;;;;;;;13.41;79.82;99120.38;5086585;28;20139;-91
2022/10/06 05:06:52;;;;;;;6.55;3.70;;;;;;;13.47;79.94;99116.97;5083594;28;20121;-93
2022/10/06 05:09:20;;;;;;;4.10;3.70;;;;;;;13.56;79.63;99135.06;5080021;28;20043;-95
2022/10/06 05:12:01;;;;;;;5.40;3.80;;;;;;;13.40;79.17;99101.09;5057889;28;20041;-94
2022/10/06 05:14:29;;;;;;;6.15;3.95;;;;;;;13.55;79.05;99127.34;5081051;28;20047;-93
2022/10/06 05:16:58;;;;;;;5.05;4.00;;;;;;;13.61;79.13;99131.84;5098394;28;20041;-95
2022/10/06 05:19:27;;;;;;;9.93;3.78;;;;;;;13.56;80.25;99127.16;5082634;28;20055;-95
2022/10/06 05:21:57;;;;;;;7.45;3.97;;;;;;;13.56;78.63;99116.63;5064461;28;20453;-95
2022/10/06 05:24:26;;;;;;;5.60;3.45;;;;;;;13.66;79.61;99132.88;5100332;28;20070;-93
2022/10/06 05:27:10;;;;;;;8.57;3.63;;;;;;;13.58;78.18;99127.78;5067798;28;20048;-96
2022/10/06 05:29:42;;;;;;;6.22;3.88;;;;;;;13.69;78.24;99151.97;5100991;28;20044;-95
2022/10/06 05:32:20;;;;;;;4.63;3.92;;;;;;;13.61;78.54;99145.84;5091319;28;20556;-96
2022/10/06 05:34:53;;;;;;;5.85;3.88;;;;;;;13.59;78.90;99161.03;5086629;28;20073;-96
2022/10/06 05:37:41;;;;;;;4.43;3.63;;;;;;;13.48;79.35;99137.03;5087793;28;20580;-96
2022/10/06 05:40:08;;;;;;;4.88;3.92;;;;;;;13.66;79.15;99175.06;5083868;28;20392;-96
2022/10/06 05:42:45;;;;;;;5.13;4.20;;;;;;;13.52;79.47;99154.91;5062641;28;20071;-96
2022/10/06 05:45:17;;;;;;;3.88;3.47;;;;;;;13.58;80.25;99158.59;5061679;28;20048;-95
2022/10/06 05:47:44;;;;;;;8.00;4.18;;;;;;;13.71;80.11;99178.94;5060913;28;20044;-92
2022/10/06 05:50:16;;;;;;;4.35;3.92;;;;;;;13.78;79.24;99182.44;5077936;28;20052;-94
2022/10/06 05:52:42;;;;;;;4.65;3.97;;;;;;;13.83;79.40;99185.31;5062342;28;20082;-93
2022/10/06 05:55:31;;;;;;;6.18;3.90;;;;;;;13.77;79.66;99175.53;5064733;28;20592;-96
2022/10/06 05:58:21;;;;;;;5.85;3.90;;;;;;;13.74;80.25;99162.75;5065169;28;20055;-94
2022/10/06 06:01:19;;;;;;;7.45;3.90;;;;;;;13.86;79.77;99187.56;5063474;28;20127;-92
2022/10/06 06:03:53;;;;;;;6.00;4.20;;;;;;;13.83;79.87;99175.56;5043106;28;20056;-94
2022/10/06 06:06:47;;;;;;;5.68;3.80;;;;;;;13.82;79.52;99186.31;5060616;28;20079;-94
2022/10/06 06:09:25;;;;;;;6.78;4.28;;;;;;;13.83;79.69;99193.22;5079315;28;20041;-96
2022/10/06 08:33:41;;;;;;;5.50;2.75;;;;;;;15.06;79.19;99456.50;5027851;27;20753;-88
2022/10/06 08:36:18;;;;;;;9.77;2.70;;;;;;;15.07;80.23;99455.50;4965110;28;20061;-89
2022/10/06 08:38:48;;;;;;;6.35;2.33;;;;;;;15.20;78.97;99457.38;4981277;28;20066;-87
2022/10/06 08:41:16;;;;;;;3.47;2.00;;;;;;;15.30;77.35;99467.59;4975055;28;20042;-88
2022/10/06 08:43:53;;;;;;;4.80;2.17;;;;;;;15.49;76.68;99459.75;4973844;28;20069;-88
2022/10/06 08:46:26;;;;;;;10.15;2.10;;;;;;;15.66;75.63;99468.19;4954973;28;25644;-89
2022/10/06 08:48:53;;;;;;;4.82;2.38;;;;;;;15.71;75.54;99468.41;4949977;28;20046;-88
2022/10/06 08:51:48;;;;;;;7.22;2.03;;;;;;;15.84;72.00;99464.97;4974697;28;20048;-90
2022/10/06 08:54:39;;;;;;;2.33;1.30;;;;;;;15.86;71.35;99475.34;4974045;28;20078;-89
2022/10/06 08:57:46;;;;;;;5.97;2.25;;;;;;;16.06;71.49;99476.19;4975756;28;20314;-87
2022/10/06 09:00:16;;;;;;;2.75;1.65;;;;;;;16.21;73.32;99470.72;4974973;28;20046;-89
2022/10/06 09:02:49;;;;;;;5.25;1.40;;;;;;;16.12;70.05;99475.38;4981557;28;20054;-87
2022/10/06 09:05:25;;;;;;;1.45;1.27;;;;;;;16.16;70.53;99487.22;4942973;28;20054;-86
2022/10/06 09:08:23;;;;;;;2.10;1.50;;;;;;;15.96;70.49;99486.38;4972995;28;20409;-82
2022/10/06 09:11:31;;;;;;;4.22;1.58;;;;;;;15.96;70.79;99486.38;4980507;28;20042;-87
2022/10/06 09:14:11;;;;;;;3.63;1.50;;;;;;;16.00;71.49;99498.16;4969972;28;20054;-83
2022/10/06 09:16:46;;;;;;;1.92;1.60;;;;;;;15.99;69.86;99497.34;4979807;28;20076;-89
2022/10/06 09:19:40;;;;;;;2.13;1.45;;;;;;;15.98;72.07;99490.44;4973495;28;20050;-87
2022/10/06 09:22:17;;;;;;;2.50;1.50;;;;;;;16.25;70.67;99488.66;4980020;28;20042;-86
2022/10/06 09:24:49;;;;;;;4.30;1.60;;;;;;;16.59;71.01;99492.13;4982047;28;20082;-88
2022/10/06 09:27:32;;;;;;;4.32;1.58;;;;;;;16.86;71.94;99500.91;4973717;28;20046;-88
2022/10/06 09:30:03;;;;;;;3.83;1.80;;;;;;;16.94;68.36;99497.22;4955955;28;20046;-85
2022/10/06 09:32:32;;;;;;;;;;;;;;;17.03;68.26;99499.44;4978703;28;20039;-87
2022/10/06 09:34:59;;;;;;;3.47;1.50;;;;;;;17.15;65.35;99496.94;4973181;28;20393;-82
2022/10/06 09:37:26;;;;;;;3.63;1.35;;;;;;;17.07;63.87;99491.88;4968432;28;20051;-82
2022/10/06 09:39:54;;;;;;;5.63;1.55;;;;;;;17.08;65.53;99498.81;4966702;28;20065;-82
2022/10/06 09:42:27;;;;;;;3.13;1.60;;;;;;;17.06;65.06;99501.66;4975671;28;20485;-83
2022/10/06 09:45:23;;;;;;;2.35;1.50;;;;;;;17.22;65.68;99492.47;4952607;28;20062;-83
2022/10/06 09:47:50;;;;;;;2.97;1.85;;;;;;;17.03;68.09;99495.94;4959109;28;20105;-83
2022/10/06 09:50:27;;;;;;;4.80;1.48;;;;;;;17.00;68.88;99504.34;4978070;28;20046;-82
2022/10/06 09:52:59;;;;;;;6.07;1.30;;;;;;;16.88;65.77;99508.63;4980593;28;20048;-82
2022/10/06 09:55:39;;;;;;;6.30;1.55;;;;;;;16.77;66.66;99494.97;4978974;28;20074;-82
2022/10/06 09:58:38;;;;;;;2.95;1.75;;;;;;;17.22;66.84;99508.38;4983224;28;20038;-82
2022/10/06 10:01:11;;;;;;;4.75;1.55;;;;;;;17.46;63.61;99519.31;4981911;28;20043;-82
2022/10/06 10:03:50;;;;;;;3.22;1.42;;;;;;;17.63;63.63;99509.84;4963761;28;20138;-83
2022/10/06 10:06:37;;;;;;;4.20;1.30;;;;;;;17.87;61.97;99509.16;4958533;28;20042;-81
2022/10/06 10:09:27;;;;;;;2.17;1.13;;;;;;;17.79;61.57;99509.41;4957116;28;20042;-87
2022/10/06 10:12:28;;;;;;;6.20;1.43;;;;;;;17.58;62.04;99515.00;4942689;28;20051;-87
2022/10/06 10:15:30;;;;;;;1.90;1.20;;;;;;;17.55;62.66;99518.03;4963148;28;20402;-86
2022/10/06 10:18:02;;;;;;;1.83;1.10;;;;;;;17.34;61.44;99519.16;4945411;28;20117;-87
2022/10/06 10:20:36;;;;;;;3.42;1.45;;;;;;;17.10;62.75;99516.16;4958363;28;20142;-86
2022/10/06 10:23:29;;;;;;;1.50;1.00;;;;;;;17.16;64.06;99519.00;4960021;28;20082;-86
2022/10/06 10:26:16;;;;;;;4.10;1.30;;;;;;;17.00;65.71;99521.06;4941601;28;21532;-86
2022/10/06 10:29:34;;;;;;;2.83;1.38;;;;;;;16.88;66.41;99520.03;4928536;28;20529;-85
2022/10/06 10:32:20;;;;;;;2.58;1.33;;;;;;;16.84;66.60;99513.53;4916428;28;20073;-85
2022/10/06 10:35:19;;;;;;;2.63;1.33;;;;;;;17.19;67.06;99522.03;4938217;28;20102;-86
2022/10/06 10:38:02;;;;;;;2.55;1.40;;;;;;;17.53;63.17;99514.81;4919981;28;20050;-85
2022/10/06 10:41:05;;;;;;;4.65;1.38;;;;;;;17.56;63.89;99519.66;4950677;28;20446;-86
2022/10/06 10:43:47;;;;;;;3.20;1.20;;;;;;;18.04;63.51;99521.91;4940789;28;20415;-86
2022/10/06 10:46:27;;;;;;;4.53;1.48;;;;;;;18.06;61.00;99519.88;4940826;28;20042;-88
2022/10/06 10:49:08;;;;;;;2.78;1.20;;;;;;;18.24;61.46;99521.81;4956151;28;20115;-86
2022/10/06 10:51:57;;;;;;;3.53;1.40;;;;;;;18.13;60.79;99521.47;4941051;28;20050;-86
2022/10/06 10:54:36;;;;;;;3.60;1.38;;;;;;;18.21;60.05;99520.41;4937264;28;20531;-86
2022/10/06 10:57:10;;;;;;;2.67;1.20;;;;;;;18.05;60.63;99518.22;4930189;28;20429;-86
2022/10/06 11:00:06;;;;;;;2.70;1.02;;;;;;;17.95;60.30;99520.56;4951967;28;20047;-86
2022/10/06 11:02:34;;;;;;;1.92;1.13;;;;;;;17.76;61.95;99525.75;4911058;28;20270;-86
2022/10/06 11:05:41;;;;;;;1.83;1.00;;;;;;;17.41;60.50;99521.78;4936491;28;20059;-87
2022/10/06 11:08:27;;;;;;;2.20;1.15;;;;;;;17.13;61.51;99525.50;4939787;28;20774;-87
2022/10/06 11:11:00;;;;;;;1.85;1.30;;;;;;;16.92;61.54;99526.56;4930845;28;20059;-82
2022/10/06 11:13:44;;;;;;;2.33;1.30;;;;;;;16.95;61.37;99520.03;4920019;28;20411;-83
2022/10/06 11:16:17;;;;;;;3.45;1.30;;;;;;;17.02;62.61;99534.09;4934769;28;20073;-82
2022/10/06 11:19:03;;;;;;;3.13;1.20;;;;;;;16.90;61.55;99528.59;4960739;28;20039;-83
2022/10/06 11:22:08;;;;;;;3.10;1.20;;;;;;;16.92;63.45;99528.41;4944585;28;20046;-82
2022/10/06 11:24:52;;;;;;;2.47;1.13;;;;;;;17.00;60.71;99536.13;4941412;28;20102;-82
2022/10/06 11:28:00;;;;;;;2.25;1.30;;;;;;;17.24;62.42;99519.56;4939664;28;20070;-82
2022/10/06 11:30:29;;;;;;;3.17;1.30;;;;;;;17.56;62.52;99528.44;4951748;28;20133;-88
2022/10/06 11:33:36;;;;;;;2.58;1.20;;;;;;;17.89;62.21;99524.88;4945359;28;20166;-86
2022/10/06 11:36:14;;;;;;;3.97;1.10;;;;;;;18.10;59.32;99523.72;4943657;28;20039;-86
2022/10/06 11:38:51;;;;;;;1.30;1.05;;;;;;;18.14;53.22;99516.97;4921034;28;20059;-88
2022/10/06 11:41:42;;;;;;;2.08;1.10;;;;;;;18.14;53.81;99522.28;4947263;28;20051;-87
2022/10/06 11:44:40;;;;;;;6.10;1.33;;;;;;;18.28;53.27;99518.50;4946573;28;20050;-88
2022/10/06 11:47:21;;;;;;;2.85;0.90;;;;;;;18.46;54.61;99512.44;4942839;28;20058;-87
2022/10/06 11:50:01;;;;;;;1.13;1.00;;;;;;;18.53;51.56;99509.75;4936430;28;20102;-84
2022/10/06 11:52:27;;;;;;;2.65;1.45;;;;;;;18.52;52.76;99508.13;4947041;28;20043;-86
2022/10/06 11:55:11;;;;;;;2.00;1.00;;;;;;;18.62;52.71;99508.44;4932986;28;20098;-88
2022/10/06 11:58:06;;;;;;;1.40;1.00;;;;;;;18.68;52.87;99504.94;4946095;28;20058;-87
2022/10/06 12:00:53;;;;;;;3.13;1.20;;;;;;;18.94;53.38;99494.06;4935044;28;20055;-87
2022/10/06 12:03:44;;;;;;;3.53;1.17;;;;;;;18.78;51.85;99493.84;4933068;28;20173;-87
2022/10/06 12:06:46;;;;;;;3.63;1.20;;;;;;;18.92;51.59;99503.31;4941569;28;20054;-86
2022/10/06 12:09:24;;;;;;;3.03;0.80;;;;;;;18.98;52.01;99505.91;4944752;28;20055;-82
2022/10/06 12:11:54;;;;;;;2.47;1.20;;;;;;;19.10;54.57;99492.69;4962148;28;20053;-82
2022/10/06 12:14:45;;;;;;;3.25;1.08;;;;;;;18.87;50.17;99493.31;4948055;28;21605;-86
2022/10/06 12:17:50;;;;;;;3.30;1.05;;;;;;;18.86;53.29;99491.69;4958221;28;20057;-87
2022/10/06 12:21:05;;;;;;;2.53;0.90;;;;;;;18.69;50.58;99499.41;4960670;28;20047;-82
2022/10/06 12:23:57;;;;;;;1.75;1.00;;;;;;;18.52;49.91;99498.31;4947972;28;20466;-82
2022/10/06 12:26:42;;;;;;;3.25;0.88;;;;;;;18.68;51.67;99483.69;4983927;28;20050;-88
2022/10/06 12:29:15;;;;;;;4.00;1.10;;;;;;;18.87;53.92;99479.22;4959062;28;20043;-87
2022/10/06 12:31:55;;;;;;;1.77;0.90;;;;;;;19.01;53.69;99479.88;4956378;28;20083;-86
2022/10/06 12:34:42;;;;;;;1.65;1.00;;;;;;;19.07;52.42;99479.00;4956330;28;20039;-84
2022/10/06 12:37:27;;;;;;;2.33;1.00;;;;;;;18.99;51.93;99477.47;4960076;28;20039;-89
2022/10/06 12:40:47;;;;;;;1.65;1.15;;;;;;;18.98;51.02;99479.31;4958579;28;20509;-86
2022/10/06 12:43:13;;;;;;;2.70;1.30;;;;;;;19.20;52.41;99476.22;4960662;28;20494;-87
2022/10/06 12:46:03;;;;;;;1.95;0.90;;;;;;;19.27;48.83;99461.00;4957682;28;20089;-88
2022/10/06 12:49:01;;;;;;;3.90;1.10;;;;;;;19.36;50.12;99462.31;4961984;28;20078;-86
2022/10/06 12:51:33;;;;;;;4.55;1.73;;;;;;;19.51;54.82;99465.41;4947412;28;20063;-87
2022/10/06 12:54:27;;;;;;;3.75;1.10;;;;;;;19.68;55.88;99464.81;4918123;28;20055;-83
2022/10/06 12:57:13;;;;;;;1.55;0.90;;;;;;;19.39;49.31;99464.53;4946020;28;20129;-83
2022/10/06 12:59:40;;;;;;;2.78;0.95;;;;;;;19.05;49.86;99475.75;4937515;28;20034;-83
2022/10/06 13:02:16;;;;;;;2.30;1.02;;;;;;;18.82;50.49;99481.72;4929921;28;20055;-83
2022/10/06 13:05:10;;;;;;;1.50;1.15;;;;;;;18.80;50.57;99475.81;4932399;28;20101;-83
2022/10/06 13:07:56;;;;;;;2.90;1.00;;;;;;;18.70;49.85;99474.47;4935573;28;20050;-82
2022/10/06 13:10:24;;;;;;;3.92;0.90;;;;;;;18.60;50.66;99473.31;4936029;28;20058;-83
2022/10/06 13:12:50;;;;;;;2.03;0.95;;;;;;;18.55;50.54;99470.50;4929530;28;20046;-82
2022/10/06 13:15:26;;;;;;;3.17;1.05;;;;;;;18.59;49.43;99477.81;4940611;28;20368;-84
2022/10/06 13:17:56;;;;;;;2.45;1.05;;;;;;;18.55;49.89;99467.84;4937902;28;20051;-82
2022/10/06 13:20:48;;;;;;;2.20;0.88;;;;;;;18.68;51.04;99473.06;4936915;28;20055;-83
2022/10/06 13:23:30;;;;;;;6.75;1.13;;;;;;;18.86;52.24;99465.13;4938096;28;20488;-83
2022/10/06 13:26:07;;;;;;;2.10;1.00;;;;;;;18.91;50.23;99467.94;4940964;28;20074;-82
2022/10/06 13:28:43;;;;;;;2.53;0.98;;;;;;;19.22;48.45;99471.50;4938295;28;20096;-83
2022/10/06 13:31:33;;;;;;;3.25;0.90;;;;;;;19.24;46.85;99461.44;4933590;28;20514;-83
2022/10/06 13:34:05;;;;;;;2.60;0.80;;;;;;;19.31;46.25;99456.03;4939573;28;20545;-83
2022/10/06 13:36:43;;;;;;;2.28;1.00;;;;;;;19.69;45.93;99466.44;4929377;28;20062;-86
2022/10/06 13:39:16;;;;;;;2.45;0.90;;;;;;;20.63;43.48;99464.00;4938211;28;20145;-87
2022/10/06 13:42:02;;;;;;;1.73;0.70;;;;;;;21.79;44.09;99460.31;4966289;28;20144;-86
2022/10/06 13:44:37;;;;;;;3.28;0.90;;;;;;;22.75;42.46;99475.53;4962107;28;20078;-87
2022/10/06 13:47:16;;;;;;;3.38;1.80;;;;;;;23.24;38.08;99471.94;4972118;28;20158;-87
2022/10/06 13:50:05;;;;;;;2.75;1.00;;;;;;;23.91;38.12;99464.69;4967377;28;20110;-87
2022/10/06 13:52:39;;;;;;;3.70;1.30;;;;;;;24.61;37.64;99458.31;4966608;28;20038;-82
2022/10/06 13:55:27;;;;;;;3.03;1.20;;;;;;;25.33;41.26;99459.53;4965782;28;20038;-82
2022/10/06 13:57:57;;;;;;;1.23;0.82;;;;;;;25.83;37.02;99469.63;4965874;28;20039;-83
2022/10/06 14:00:56;;;;;;;1.52;0.90;;;;;;;26.40;36.93;99468.63;4966745;28;20055;-82
2022/10/06 14:03:34;;;;;;;1.17;0.68;;;;;;;27.12;36.30;99469.31;4966723;28;20043;-83
2022/10/06 14:06:16;;;;;;;2.42;0.90;;;;;;;27.35;31.63;99467.88;4966287;28;20038;-82
2022/10/06 14:08:53;;;;;;;1.70;0.82;;;;;;;27.73;32.11;99469.06;4966555;28;20046;-82
2022/10/06 14:11:28;;;;;;;1.42;0.75;;;;;;;27.68;31.20;99468.25;4964028;28;20039;-83
2022/10/06 14:14:13;;;;;;;2.28;0.93;;;;;;;26.76;29.08;99465.09;4967658;28;20043;-83
2022/10/06 14:16:51;;;;;;;2.22;1.00;;;;;;;27.29;30.32;99469.00;4964183;28;20125;-82
2022/10/06 14:19:40;;;;;;;3.50;1.20;;;;;;;27.99;34.40;99464.28;4995849;28;20050;-82
2022/10/06 14:22:37;;;;;;;3.17;0.85;;;;;;;28.39;32.87;99464.28;4962328;28;20049;-83
2022/10/06 14:25:11;;;;;;;2.67;1.05;;;;;;;28.51;29.65;99459.31;4964313;28;20378;-83
2022/10/06 14:27:37;;;;;;;1.20;0.77;;;;;;;27.64;30.36;99453.72;4967056;28;20707;-83
2022/10/06 14:30:05;;;;;;;2.72;1.08;;;;;;;25.86;31.07;99462.94;4965909;28;20043;-83
2022/10/06 14:32:32;;;;;;;2.63;0.95;;;;;;;24.71;35.28;99453.03;4961566;28;20055;-82
2022/10/06 14:34:59;;;;;;;3.15;0.90;;;;;;;23.82;35.39;99460.84;4964605;28;20039;-83
2022/10/06 14:37:25;;;;;;;1.98;0.70;;;;;;;23.37;39.16;99464.59;4964715;28;20490;-82
2022/10/06 14:39:54;;;;;;;3.47;0.80;;;;;;;23.03;35.10;99459.38;4978711;28;20050;-82
2022/10/06 14:42:23;;;;;;;2.20;0.82;;;;;;;22.74;38.80;99460.53;4964060;28;20085;-82
2022/10/06 14:44:50;;;;;;;1.98;0.70;;;;;;;22.32;37.49;99463.66;4965652;28;20626;-82
2022/10/06 14:47:16;;;;;;;2.85;0.73;;;;;;;21.80;38.18;99455.78;4966242;28;20049;-82
2022/10/06 14:49:44;;;;;;;2.20;1.13;;;;;;;21.79;43.72;99459.50;4965451;28;20051;-82